Time;durP1;ratioP1;P1;durP2;ratioP2;P2;SDS_P1;SDS_P2;PMS_P1;PMS_P2;Temp;Humidity;BMP_temperature;BMP_pressure;BME280_temperature;BME280_humidity;BME280_pressure;Samples;Min_cycle;Max_cycle;Signal;HPM_P1;HPM_P2
2023/08/01 00:00:20;;;;;;;;;;;;;;;25.34;51.47;99048.16;5052517;28;19939;-78
2023/08/01 00:02:46;;;;;;;;;;;;;;;25.39;51.47;99044.59;5051664;28;19952;-78
2023/08/01 00:05:11;;;;;;;;;;;;;;;25.42;51.93;99045.91;5051644;28;20304;-78
2023/08/01 00:07:37;;;;;;;;;;;;;;;25.46;52.36;99052.38;5051659;28;20377;-78
2023/08/01 00:10:02;;;;;;;;;;;;;;;25.46;52.38;99057.78;5051647;28;19999;-78
2023/08/01 00:12:27;;;;;;;;;;;;;;;25.47;52.03;99046.66;5051474;28;19912;-78
2023/08/01 00:14:53;;;;;;;;;;;;;;;25.44;51.90;99049.94;5051332;28;19983;-78
2023/08/01 00:17:18;;;;;;;;;;;;;;;25.45;51.98;99046.16;5051196;28;20392;-78
2023/08/01 00:19:43;;;;;;;;;;;;;;;25.46;50.80;99049.66;5051269;28;20344;-78
2023/08/01 00:22:09;;;;;;;;;;;;;;;25.41;52.81;99045.13;5051384;28;20451;-78
2023/08/01 00:24:35;;;;;;;;;;;;;;;25.41;51.89;99044.31;5051265;28;20347;-78
2023/08/01 00:27:00;;;;;;;;;;;;;;;25.41;52.11;99038.91;5051749;28;20462;-78
2023/08/01 00:29:26;;;;;;;;;;;;;;;25.46;52.35;99036.94;5051226;28;19913;-78
2023/08/01 00:31:51;;;;;;;;;;;;;;;25.54;52.10;99049.03;5033610;28;19909;-78
2023/08/01 00:34:16;;;;;;;;;;;;;;;25.62;52.58;99042.97;5053061;28;19909;-78
2023/08/01 00:36:41;;;;;;;;;;;;;;;25.62;52.61;99041.09;5055185;28;19913;-78
2023/08/01 00:39:07;;;;;;;;;;;;;;;25.61;52.76;99035.97;5055013;28;19919;-77
2023/08/01 00:41:32;;;;;;;;;;;;;;;25.59;52.57;99025.44;5037000;28;19920;-78
2023/08/01 00:43:57;;;;;;;;;;;;;;;25.60;51.61;99027.06;5055057;28;19908;-78
2023/08/01 00:46:23;;;;;;;;;;;;;;;25.61;53.21;99025.97;5054817;28;19909;-78
2023/08/01 00:48:48;;;;;;;;;;;;;;;25.60;53.12;99029.75;5054744;28;19909;-78
2023/08/01 00:51:13;;;;;;;;;;;;;;;25.59;51.96;99011.13;5054685;28;19909;-79
2023/08/01 00:53:39;;;;;;;;;;;;;;;25.50;53.67;99018.25;5054414;28;19908;-78
2023/08/01 00:56:05;;;;;;;;;;;;;;;25.46;52.96;99015.31;5036669;28;19909;-78
2023/08/01 00:58:30;;;;;;;;;;;;;;;25.43;51.26;99013.19;5036511;28;20394;-77
2023/08/01 01:00:56;;;;;;;;;;;;;;;25.42;53.30;99011.59;5037235;28;20439;-77
2023/08/01 01:03:22;;;;;;;;;;;;;;;25.41;52.47;99011.88;5055356;28;19959;-77
2023/08/01 01:05:52;;;;;;;;;;;;;;;25.41;53.05;99007.28;5036871;28;20374;-79
2023/08/01 01:08:17;;;;;;;;;;;;;;;25.39;53.82;99003.25;5054547;28;20300;-77
2023/08/01 01:10:42;;;;;;;;;;;;;;;25.41;52.70;99006.47;5054496;28;19908;-78
2023/08/01 01:13:08;;;;;;;;;;;;;;;25.41;53.19;99009.19;5036613;28;19978;-78
2023/08/01 01:15:33;;;;;;;;;;;;;;;25.43;52.32;99007.00;5036451;28;19909;-78
2023/08/01 01:17:58;;;;;;;;;;;;;;;25.46;53.26;99006.41;5054256;28;19913;-77
2023/08/01 01:20:24;;;;;;;;;;;;;;;25.46;51.57;99009.91;5054250;28;20000;-78
2023/08/01 01:22:51;;;;;;;;;;;;;;;25.50;51.95;99007.44;5054190;28;19963;-78
2023/08/01 01:25:18;;;;;;;;;;;;;;;25.50;51.60;99013.66;5054006;28;20436;-79
2023/08/01 01:27:45;;;;;;;;;;;;;;;25.46;52.63;99011.81;5053820;28;20376;-78
2023/08/01 01:30:11;;;;;;;;;;;;;;;25.40;51.87;99010.28;5054056;28;19912;-78
2023/08/01 01:32:36;;;;;;;;;;;;;;;25.34;52.10;99010.31;5036069;28;19966;-78
2023/08/01 01:35:03;;;;;;;;;;;;;;;25.36;52.48;99006.53;5036112;28;19912;-78
2023/08/01 01:37:28;;;;;;;;;;;;;;;25.34;52.04;99010.31;5054062;28;20011;-78
2023/08/01 01:39:53;;;;;;;;;;;;;;;25.31;52.59;99005.50;5036023;28;20421;-78
2023/08/01 01:42:19;;;;;;;;;;;;;;;25.34;53.59;99004.13;5053816;28;19909;-78
2023/08/01 01:44:44;;;;;;;;;;;;;;;25.31;52.87;99008.19;5053824;28;19938;-78
2023/08/01 01:47:09;;;;;;;;;;;;;;;25.31;53.55;99002.78;5053798;28;19908;-78
2023/08/01 01:49:34;;;;;;;;;;;;;;;25.30;53.88;99000.38;5053785;28;20332;-78
2023/08/01 01:52:00;;;;;;;;;;;;;;;25.28;52.79;98997.97;5053695;28;19909;-78
2023/08/01 01:54:25;;;;;;;;;;;;;;;25.25;52.57;98993.09;5053534;28;19959;-78
2023/08/01 01:56:50;;;;;;;;;;;;;;;25.24;54.01;99005.00;5053593;28;19915;-78
2023/08/01 01:59:15;;;;;;;;;;;;;;;25.22;52.79;99007.19;5053254;28;19924;-78
2023/08/01 02:01:40;;;;;;;;;;;;;;;25.17;54.35;99004.53;5035706;28;19912;-78
2023/08/01 02:04:06;;;;;;;;;;;;;;;25.15;53.04;99006.72;5053292;28;19908;-78
2023/08/01 02:06:31;;;;;;;;;;;;;;;25.18;53.23;99002.66;5036017;28;20476;-78
2023/08/01 02:08:56;;;;;;;;;;;;;;;25.21;52.66;98997.47;5035556;28;19908;-78
2023/08/01 02:11:21;;;;;;;;;;;;;;;25.23;52.75;98998.00;5035406;28;19967;-78
2023/08/01 02:13:47;;;;;;;;;;;;;;;25.24;52.75;99005.00;5053334;28;19904;-78
2023/08/01 02:16:12;;;;;;;;;;;;;;;25.24;52.50;99006.91;5053061;28;19991;-78
2023/08/01 02:18:37;;;;;;;;;;;;;;;25.20;53.31;99003.16;5052990;28;19913;-78
2023/08/01 02:21:02;;;;;;;;;;;;;;;25.18;54.02;98999.94;5053197;28;19915;-79
2023/08/01 02:23:28;;;;;;;;;;;;;;;25.17;53.92;98993.72;5053329;28;20411;-78
2023/08/01 02:25:54;;;;;;;;;;;;;;;25.17;53.64;98990.22;5035423;28;19916;-78
2023/08/01 02:28:19;;;;;;;;;;;;;;;25.16;53.32;98994.03;5053498;28;19968;-79
2023/08/01 02:30:44;;;;;;;;;;;;;;;25.09;53.56;98997.06;5052695;28;19913;-79
2023/08/01 02:33:10;;;;;;;;;;;;;;;25.07;53.75;98993.84;5052778;28;20305;-79
2023/08/01 02:35:36;;;;;;;;;;;;;;;25.05;52.74;98993.31;5052583;28;19908;-79
2023/08/01 02:38:03;;;;;;;;;;;;;;;25.01;53.79;98993.09;5052654;28;19948;-78
2023/08/01 02:40:28;;;;;;;;;;;;;;;24.99;53.70;98992.56;5052727;28;20352;-78
2023/08/01 02:42:53;;;;;;;;;;;;;;;24.98;53.25;98982.88;5052836;28;19912;-77
2023/08/01 02:45:19;;;;;;;;;;;;;;;24.98;53.51;98985.56;5052801;28;19908;-77
2023/08/01 02:47:44;;;;;;;;;;;;;;;24.98;54.54;98984.75;5053020;28;19908;-77
2023/08/01 02:50:09;;;;;;;;;;;;;;;24.96;54.62;98987.72;5052598;28;19908;-76
2023/08/01 02:52:35;;;;;;;;;;;;;;;24.97;54.44;98996.63;5052535;28;19908;-78
2023/08/01 02:55:00;;;;;;;;;;;;;;;24.98;54.21;99000.97;5052420;28;19939;-76
2023/08/01 02:57:25;;;;;;;;;;;;;;;25.00;54.48;98993.38;5053133;28;19915;-78
2023/08/01 02:59:50;;;;;;;;;;;;;;;25.06;54.04;98991.44;5052473;28;19924;-78
2023/08/01 03:02:16;;;;;;;;;;;;;;;25.09;54.15;99002.47;5052783;28;19915;-79
2023/08/01 03:04:41;;;;;;;;;;;;;;;25.13;55.06;99008.91;5052572;28;19901;-78
2023/08/01 03:07:06;;;;;;;;;;;;;;;25.11;53.86;99004.88;5052264;28;19909;-78
2023/08/01 03:09:32;;;;;;;;;;;;;;;25.12;53.03;99006.50;5052146;28;20407;-79
2023/08/01 03:11:57;;;;;;;;;;;;;;;25.07;54.69;99012.75;5052114;28;19908;-78
2023/08/01 03:14:22;;;;;;;;;;;;;;;25.05;54.76;99016.84;5052148;28;19920;-77
2023/08/01 03:16:48;;;;;;;;;;;;;;;25.02;51.85;99015.50;5051974;28;19905;-78
2023/08/01 03:19:13;;;;;;;;;;;;;;;24.94;54.19;99014.19;5051906;28;19913;-78
2023/08/01 03:21:38;;;;;;;;;;;;;;;24.80;53.95;99024.06;5034268;28;19908;-78
2023/08/01 03:24:06;;;;;;;;;;;;;;;24.75;55.43;99023.28;5034171;28;19988;-79
2023/08/01 03:26:31;;;;;;;;;;;;;;;24.71;54.19;99015.75;5051943;28;19915;-79
2023/08/01 03:28:56;;;;;;;;;;;;;;;24.69;54.15;99020.66;5051899;28;19988;-78
2023/08/01 03:31:22;;;;;;;;;;;;;;;24.63;54.09;99019.06;5033994;28;19908;-78
2023/08/01 03:33:47;;;;;;;;;;;;;;;24.53;56.34;99027.25;5051920;28;19909;-78
2023/08/01 03:36:13;;;;;;;;;;;;;;;24.48;55.54;99026.47;5051810;28;19915;-78
2023/08/01 03:38:38;;;;;;;;;;;;;;;24.48;55.28;99023.75;5051673;28;19920;-78
2023/08/01 03:41:04;;;;;;;;;;;;;;;24.47;55.08;99031.03;5051759;28;20046;-78
2023/08/01 03:43:29;;;;;;;;;;;;;;;24.45;54.31;99033.22;5051713;28;19909;-78
2023/08/01 03:45:54;;;;;;;;;;;;;;;24.43;56.16;99032.69;5051723;28;19995;-77
2023/08/01 03:48:20;;;;;;;;;;;;;;;24.39;55.75;99026.25;5033698;28;19913;-78
2023/08/01 03:50:45;;;;;;;;;;;;;;;24.37;56.15;99029.22;5051757;28;19958;-78
2023/08/01 03:53:10;;;;;;;;;;;;;;;24.43;55.33;99038.09;5051536;28;19909;-78
2023/08/01 03:55:35;;;;;;;;;;;;;;;24.45;55.73;99037.81;5051647;28;19908;-78
2023/08/01 03:58:01;;;;;;;;;;;;;;;24.42;56.18;99033.78;5051334;28;19916;-78
2023/08/01 04:00:32;;;;;;;;;;;;;;;24.44;56.29;99031.59;5051559;28;19912;-79
2023/08/01 04:02:57;;;;;;;;;;;;;;;24.46;55.93;99040.22;5051615;28;19999;-78
2023/08/01 04:05:24;;;;;;;;;;;;;;;24.40;56.50;99033.25;5051486;28;19958;-78
2023/08/01 04:07:49;;;;;;;;;;;;;;;24.42;55.70;99031.09;5051262;28;19915;-78
2023/08/01 04:10:14;;;;;;;;;;;;;;;24.45;55.99;99037.81;5054784;28;19916;-78
2023/08/01 04:12:40;;;;;;;;;;;;;;;24.48;55.17;99043.44;5037788;28;19908;-78
2023/08/01 04:15:05;;;;;;;;;;;;;;;24.49;56.06;99045.06;5055802;28;20308;-78
2023/08/01 04:17:30;;;;;;;;;;;;;;;24.51;55.00;99048.28;5055636;28;19912;-78
2023/08/01 04:19:56;;;;;;;;;;;;;;;24.57;54.39;99052.59;5055415;28;20000;-78
2023/08/01 04:22:21;;;;;;;;;;;;;;;24.58;54.43;99045.31;5055403;28;19913;-78
2023/08/01 04:24:46;;;;;;;;;;;;;;;24.55;54.85;99046.66;5055424;28;20000;-78
2023/08/01 04:27:12;;;;;;;;;;;;;;;24.59;54.68;99047.72;5037329;28;19909;-78
2023/08/01 04:29:37;;;;;;;;;;;;;;;24.60;54.00;99053.91;5055060;28;19908;-78
2023/08/01 04:32:02;;;;;;;;;;;;;;;24.62;55.28;99051.75;5055197;28;19913;-78
2023/08/01 04:34:27;;;;;;;;;;;;;;;24.62;54.60;99057.94;5055385;28;20397;-78
2023/08/01 04:36:53;;;;;;;;;;;;;;;24.63;55.81;99053.34;5055286;28;19908;-78
2023/08/01 04:39:18;;;;;;;;;;;;;;;24.64;55.10;99053.06;5037123;28;20373;-78
2023/08/01 04:41:43;;;;;;;;;;;;;;;24.69;55.02;99058.44;5055008;28;20004;-78
2023/08/01 04:44:09;;;;;;;;;;;;;;;24.70;54.53;99068.16;5054847;28;20393;-78
2023/08/01 04:46:34;;;;;;;;;;;;;;;24.64;54.86;99055.78;5037003;28;19917;-78
2023/08/01 04:48:59;;;;;;;;;;;;;;;24.62;54.59;99062.53;5036950;28;19935;-78
2023/08/01 04:51:25;;;;;;;;;;;;;;;24.62;55.41;99068.75;5054803;28;19923;-78
2023/08/01 04:53:50;;;;;;;;;;;;;;;24.63;55.90;99070.38;5054688;28;19908;-78
2023/08/01 04:56:15;;;;;;;;;;;;;;;24.65;54.19;99072.78;5054849;28;19908;-78
2023/08/01 04:58:40;;;;;;;;;;;;;;;24.70;54.76;99080.84;5054651;28;19916;-78
2023/08/01 05:01:06;;;;;;;;;;;;;;;24.75;55.58;99077.28;5054710;28;20385;-78
2023/08/01 05:03:31;;;;;;;;;;;;;;;24.81;54.98;99079.66;5054784;28;19962;-78
2023/08/01 05:05:56;;;;;;;;;;;;;;;24.94;54.34;99076.31;5054593;28;19923;-78
2023/08/01 05:08:22;;;;;;;;;;;;;;;25.03;54.65;99087.34;5054569;28;20399;-78
2023/08/01 05:10:47;;;;;;;;;;;;;;;25.05;54.66;99082.47;5036621;28;19913;-78
2023/08/01 05:13:13;;;;;;;;;;;;;;;25.09;54.69;99082.69;5054410;28;19975;-78
2023/08/01 05:15:38;;;;;;;;;;;;;;;25.15;54.32;99085.06;5054299;28;20355;-78
2023/08/01 05:18:03;;;;;;;;;;;;;;;25.16;54.36;99092.09;5053938;28;20382;-78
2023/08/01 05:20:30;;;;;;;;;;;;;;;25.25;54.70;99086.88;5053479;28;19948;-78
2023/08/01 05:22:59;;;;;;;;;;;;;;;25.30;54.28;99094.97;5053924;28;19908;-78
2023/08/01 05:25:24;;;;;;;;;;;;;;;25.40;54.08;99085.94;5053963;28;20014;-78
2023/08/01 05:27:49;;;;;;;;;;;;;;;25.51;54.65;99090.94;5053850;28;20397;-78
2023/08/01 05:30:14;;;;;;;;;;;;;;;25.59;53.94;99103.84;5036200;28;20469;-78
2023/08/01 05:32:40;;;;;;;;;;;;;;;25.60;53.95;99091.13;5036179;28;19909;-78
2023/08/01 05:35:06;;;;;;;;;;;;;;;25.67;54.36;99099.72;5053967;28;20309;-78
2023/08/01 05:37:31;;;;;;;;;;;;;;;25.74;53.39;99094.78;5053929;28;19966;-78
2023/08/01 05:39:56;;;;;;;;;;;;;;;25.82;53.40;99096.03;5053756;28;19920;-78
2023/08/01 05:42:22;;;;;;;;;;;;;;;25.87;53.37;99094.09;5054160;28;19908;-78
2023/08/01 05:44:47;;;;;;;;;;;;;;;25.92;53.46;99098.63;5053924;28;19947;-77
2023/08/01 05:47:12;;;;;;;;;;;;;;;25.96;54.11;99099.66;5053695;28;19912;-78
2023/08/01 05:49:37;;;;;;;;;;;;;;;26.00;53.14;99103.38;5035974;28;19955;-76
2023/08/01 05:52:03;;;;;;;;;;;;;;;26.04;52.75;99098.25;5053584;28;19917;-78
2023/08/01 05:54:28;;;;;;;;;;;;;;;26.02;52.82;99101.22;5052479;28;19932;-78
2023/08/01 05:56:53;;;;;;;;;;;;;;;26.00;52.45;99092.56;5052803;28;19913;-77
2023/08/01 05:59:19;;;;;;;;;;;;;;;26.03;53.09;99096.63;5032804;28;20324;-78
2023/08/01 06:01:44;;;;;;;;;;;;;;;26.06;52.59;99091.44;5052604;28;19970;-77
2023/08/01 06:04:10;;;;;;;;;;;;;;;26.08;52.84;99101.97;5053826;28;19905;-76
2023/08/01 06:06:35;;;;;;;;;;;;;;;26.08;51.96;99101.97;5044811;28;19915;-78
2023/08/01 06:09:00;;;;;;;;;;;;;;;26.13;52.17;99088.38;5039341;28;19913;-78
2023/08/01 06:11:26;;;;;;;;;;;;;;;26.17;51.44;99086.69;5067666;28;19913;-79
2023/08/01 06:13:52;;;;;;;;;;;;;;;26.22;50.70;99089.34;5023201;28;19913;-78
2023/08/01 06:16:17;;;;;;;;;;;;;;;26.25;50.58;99086.84;5050724;28;19927;-78
2023/08/01 06:18:42;;;;;;;;;;;;;;;26.26;50.48;99080.34;5030022;28;20413;-77
2023/08/01 06:21:07;;;;;;;;;;;;;;;26.33;49.70;99080.00;5033091;28;19931;-78
2023/08/01 06:23:33;;;;;;;;;;;;;;;26.40;49.59;99083.16;5032855;28;19901;-78
2023/08/01 06:25:58;;;;;;;;;;;;;;;26.43;49.15;99081.75;5046933;28;20349;-78
2023/08/01 06:28:23;;;;;;;;;;;;;;;26.44;48.99;99081.47;5052737;28;19919;-78
2023/08/01 06:30:48;;;;;;;;;;;;;;;26.49;49.12;99077.88;5050887;28;19943;-78
2023/08/01 06:33:14;;;;;;;;;;;;;;;26.52;48.82;99077.28;5052976;28;19909;-78
2023/08/01 06:35:39;;;;;;;;;;;;;;;26.56;48.89;99081.03;5055966;28;19963;-78
2023/08/01 06:38:04;;;;;;;;;;;;;;;26.60;48.87;99080.13;5044093;28;19917;-78
2023/08/01 06:40:29;;;;;;;;;;;;;;;26.68;48.69;99080.56;5040107;28;20357;-78
2023/08/01 06:42:55;;;;;;;;;;;;;;;26.69;48.29;99082.16;5052330;28;19912;-78
2023/08/01 06:45:20;;;;;;;;;;;;;;;26.73;48.39;99075.06;5052040;28;19963;-77
2023/08/01 06:47:45;;;;;;;;;;;;;;;26.83;48.13;99070.31;5032981;28;20290;-78
2023/08/01 06:50:11;;;;;;;;;;;;;;;26.90;47.44;99076.16;5048966;28;20408;-77
2023/08/01 06:52:36;;;;;;;;;;;;;;;26.91;47.69;99071.53;5052211;28;19909;-77
2023/08/01 06:55:01;;;;;;;;;;;;;;;26.94;47.51;99064.72;5052575;28;19912;-78
2023/08/01 06:57:27;;;;;;;;;;;;;;;27.04;47.64;99078.13;5034416;28;19909;-78
2023/08/01 06:59:52;;;;;;;;;;;;;;;27.14;47.21;99075.25;5051913;28;19983;-77
2023/08/01 07:02:17;;;;;;;;;;;;;;;27.26;47.36;99080.19;5034822;28;19956;-78
2023/08/01 07:04:42;;;;;;;;;;;;;;;27.33;47.25;99072.47;5052379;28;19901;-78
2023/08/01 07:07:08;;;;;;;;;;;;;;;27.35;46.67;99064.84;5052309;28;20459;-77
2023/08/01 07:09:34;;;;;;;;;;;;;;;27.42;46.44;99078.78;5052210;28;19931;-76
2023/08/01 07:11:59;;;;;;;;;;;;;;;27.45;46.36;99080.91;5052131;28;19909;-77
2023/08/01 07:14:24;;;;;;;;;;;;;;;27.53;46.41;99075.63;5034215;28;20282;-78
2023/08/01 07:16:49;;;;;;;;;;;;;;;27.59;46.39;99078.22;5051751;28;20004;-79
2023/08/01 07:19:15;;;;;;;;;;;;;;;27.65;45.94;99083.28;5051587;28;19913;-79
2023/08/01 07:21:40;;;;;;;;;;;;;;;27.66;46.00;99068.63;5051776;28;19909;-77
2023/08/01 07:24:06;;;;;;;;;;;;;;;27.72;45.85;99077.47;5051806;28;19909;-77
2023/08/01 07:26:31;;;;;;;;;;;;;;;27.80;45.84;99074.84;5051754;28;19913;-77
2023/08/01 07:28:56;;;;;;;;;;;;;;;27.84;45.50;99075.84;5051642;28;19959;-77
2023/08/01 07:31:22;;;;;;;;;;;;;;;27.92;45.58;99073.53;5048914;28;20393;-77
2023/08/01 07:33:47;;;;;;;;;;;;;;;28.01;45.64;99074.41;5050867;28;20329;-78
2023/08/01 07:36:12;;;;;;;;;;;;;;;28.09;45.12;99070.97;5050688;28;19956;-77
2023/08/01 07:38:37;;;;;;;;;;;;;;;28.09;45.25;99066.34;5029985;28;19921;-78
2023/08/01 07:41:04;;;;;;;;;;;;;;;28.15;45.13;99070.56;5048909;28;20023;-78
2023/08/01 07:43:29;;;;;;;;;;;;;;;28.22;44.89;99067.44;5050612;28;19913;-78
2023/08/01 07:45:58;;;;;;;;;;;;;;;28.25;44.75;99068.78;5051037;28;19945;-78
2023/08/01 07:48:23;;;;;;;;;;;;;;;28.29;44.31;99064.34;5048870;28;19952;-77
2023/08/01 07:50:48;;;;;;;;;;;;;;;28.31;44.25;99062.13;5051643;28;19931;-78
2023/08/01 07:53:14;;;;;;;;;;;;;;;28.39;44.44;99064.13;5049518;28;19913;-78
2023/08/01 07:55:39;;;;;;;;;;;;;;;28.47;44.10;99061.47;5049460;28;19962;-78
2023/08/01 07:58:04;;;;;;;;;;;;;;;28.57;44.25;99052.28;5050914;28;19917;-77
2023/08/01 08:00:29;;;;;;;;;;;;;;;28.63;43.70;99051.06;5049703;28;20006;-77
2023/08/01 08:02:55;;;;;;;;;;;;;;;28.75;43.78;99061.34;5048697;28;19966;-77
2023/08/01 08:05:20;;;;;;;;;;;;;;;28.87;43.47;99048.03;5043385;28;20381;-78
2023/08/01 08:07:45;;;;;;;;;;;;;;;28.96;43.69;99051.59;5045804;28;19983;-78
2023/08/01 08:10:10;;;;;;;;;;;;;;;29.09;43.67;99045.31;5033241;28;20371;-78
2023/08/01 08:12:36;;;;;;;;;;;;;;;29.18;43.37;99044.56;5032861;28;19970;-78
2023/08/01 08:15:01;;;;;;;;;;;;;;;29.26;43.24;99047.31;5051334;28;19915;-78
2023/08/01 08:17:26;;;;;;;;;;;;;;;29.28;42.24;99047.00;5051278;28;19909;-78
2023/08/01 08:19:51;;;;;;;;;;;;;;;29.34;42.83;99043.03;5032970;28;19908;-78
2023/08/01 08:22:17;;;;;;;;;;;;;;;29.42;42.46;99042.25;5033102;28;20389;-78
2023/08/01 08:24:42;;;;;;;;;;;;;;;29.46;41.75;99037.81;5050871;28;19970;-78
2023/08/01 08:27:07;;;;;;;;;;;;;;;29.48;41.11;99032.06;5050896;28;19913;-78
2023/08/01 08:29:33;;;;;;;;;;;;;;;29.58;42.14;99027.13;5032987;28;19908;-78
2023/08/01 08:31:58;;;;;;;;;;;;;;;29.63;41.63;99027.00;5050294;28;20391;-77
2023/08/01 08:34:23;;;;;;;;;;;;;;;29.66;41.48;99023.63;5033603;28;20622;-77
2023/08/01 08:36:51;;;;;;;;;;;;;;;29.73;40.97;99028.66;5050548;28;19908;-76
2023/08/01 08:39:17;;;;;;;;;;;;;;;29.82;40.62;99034.09;5048968;28;19912;-78
2023/08/01 08:41:47;;;;;;;;;;;;;;;29.90;40.73;99028.69;5049152;28;19920;-78
2023/08/01 08:44:14;;;;;;;;;;;;;;;30.01;40.86;99026.44;5051142;28;19915;-78
2023/08/01 08:46:43;;;;;;;;;;;;;;;30.04;40.84;99023.91;5047188;28;19912;-78
2023/08/01 08:49:08;;;;;;;;;;;;;;;30.14;40.12;99022.81;5044219;28;19920;-78
2023/08/01 08:51:35;;;;;;;;;;;;;;;30.28;40.43;99014.47;5033165;28;19992;-78
2023/08/01 08:54:01;;;;;;;;;;;;;;;30.45;40.34;99024.56;5050643;28;19982;-78
2023/08/01 08:56:26;;;;;;;;;;;;;;;30.60;39.55;99015.94;5052746;28;20393;-78
2023/08/01 08:58:52;;;;;;;;;;;;;;;30.69;39.18;99008.56;5052429;28;19956;-78
2023/08/01 09:01:17;;;;;;;;;;;;;;;30.83;39.41;99011.09;5046729;28;20012;-78
2023/08/01 09:03:44;;;;;;;;;;;;;;;30.99;38.31;99004.78;5032171;28;19959;-76
2023/08/01 09:06:12;;;;;;;;;;;;;;;31.13;38.40;99003.78;5049931;28;19913;-77
2023/08/01 09:08:39;;;;;;;;;;;;;;;31.32;38.28;99006.97;5021370;28;20007;-77
2023/08/01 09:11:04;;;;;;;;;;;;;;;31.51;37.85;99004.63;5038106;28;19962;-78
2023/08/01 09:13:30;;;;;;;;;;;;;;;31.69;36.69;99002.59;5053587;28;20343;-76
2023/08/01 09:15:56;;;;;;;;;;;;;;;31.84;38.09;99001.22;5053431;28;19913;-77
2023/08/01 09:18:21;;;;;;;;;;;;;;;31.85;36.22;99003.63;5053692;28;19974;-77
2023/08/01 09:20:47;;;;;;;;;;;;;;;31.72;36.68;98998.44;5035293;28;19913;-77
2023/08/01 09:23:12;;;;;;;;;;;;;;;31.45;37.33;98996.94;5053402;28;19912;-77
2023/08/01 09:25:38;;;;;;;;;;;;;;;31.16;37.92;98994.97;5048259;28;19995;-78
2023/08/01 09:28:17;;;;;;;;;;;;;;;30.91;37.52;98991.19;5052013;28;20266;-78
2023/08/01 09:30:45;;;;;;;;;;;;;;;30.69;37.91;98986.75;5052739;28;19911;-77
2023/08/01 09:33:11;;;;;;;;;;;;;;;30.55;38.29;98989.66;5039275;28;19963;-78
2023/08/01 09:35:38;;;;;;;;;;;;;;;30.51;38.21;98993.34;5053706;28;19952;-78
2023/08/01 09:38:03;;;;;;;;;;;;;;;30.54;38.19;98981.78;5050470;28;19924;-78
2023/08/01 09:40:36;;;;;;;;;;;;;;;30.95;38.44;98979.31;5051813;28;19963;-76
2023/08/01 09:43:01;;;;;;;;;;;;;;;31.45;37.68;98981.38;5032893;28;19962;-76
2023/08/01 09:45:26;;;;;;;;;;;;;;;31.67;36.42;98983.00;5052861;28;20370;-76
2023/08/01 09:47:51;;;;;;;;;;;;;;;31.90;35.90;98976.13;5047962;28;19943;-77
2023/08/01 09:50:21;;;;;;;;;;;;;;;32.26;34.48;98982.16;5053641;28;20309;-78
2023/08/01 09:52:52;;;;;;;;;;;;;;;32.57;34.68;98982.50;5051993;28;20007;-78
2023/08/01 09:55:33;;;;;;;;;;;;;;;32.84;35.00;98970.22;5051987;28;19913;-78
2023/08/01 09:57:59;;;;;;;;;;;;;;;33.09;34.25;98971.03;5034673;28;19962;-77
2023/08/01 10:00:31;;;;;;;;;;;;;;;33.30;32.35;98970.94;5050652;28;19924;-78
2023/08/01 10:02:57;;;;;;;;;;;;;;;33.54;34.28;98965.50;5052599;28;19942;-78
2023/08/01 10:05:23;;;;;;;;;;;;;;;33.76;31.92;98962.25;5034984;28;20003;-77
2023/08/01 10:07:51;;;;;;;;;;;;;;;33.45;32.77;98957.41;5046262;28;20305;-76
2023/08/01 10:10:16;;;;;;;;;;;;;;;33.30;33.97;98954.53;5051149;28;20015;-78
2023/08/01 10:12:48;;;;;;;;;;;;;;;33.60;32.54;98944.16;5050877;28;19928;-77
2023/08/01 10:15:15;;;;;;;;;;;;;;;33.74;31.80;98934.41;5052388;28;19912;-78
2023/08/01 10:17:41;;;;;;;;;;;;;;;33.94;31.72;98937.34;5048404;28;19920;-78
2023/08/01 10:20:07;;;;;;;;;;;;;;;34.20;32.41;98932.25;5036522;28;19946;-75
2023/08/01 10:22:32;;;;;;;;;;;;;;;34.58;32.10;98931.75;5051468;28;19916;-77
2023/08/01 10:24:58;;;;;;;;;;;;;;;34.90;30.46;98918.84;5051846;28;19955;-78
2023/08/01 10:27:23;;;;;;;;;;;;;;;35.10;31.30;98919.75;5051178;28;19996;-78
2023/08/01 10:29:59;;;;;;;;;;;;;;;35.25;31.27;98920.88;5033291;28;19915;-78
2023/08/01 10:32:29;;;;;;;;;;;;;;;35.51;30.48;98912.09;5051529;28;20409;-78
2023/08/01 10:34:54;;;;;;;;;;;;;;;35.72;30.61;98915.31;5050964;28;20000;-78
2023/08/01 10:37:19;;;;;;;;;;;;;;;35.93;30.98;98910.28;5051472;28;19991;-78
2023/08/01 10:39:55;;;;;;;;;;;;;;;36.11;29.20;98909.84;5051046;28;20366;-78
2023/08/01 10:42:21;;;;;;;;;;;;;;;36.20;29.75;98908.44;5049620;28;20004;-79
2023/08/01 10:44:46;;;;;;;;;;;;;;;36.37;30.00;98904.47;5052491;28;19912;-76
2023/08/01 10:47:12;;;;;;;;;;;;;;;36.39;29.51;98902.16;5052451;28;20305;-77
2023/08/01 10:49:37;;;;;;;;;;;;;;;36.27;30.50;98894.03;5052633;28;19909;-78
2023/08/01 10:52:03;;;;;;;;;;;;;;;36.33;29.48;98884.38;5045619;28;19987;-77
2023/08/01 10:54:28;;;;;;;;;;;;;;;35.80;30.00;98886.84;5051478;28;19912;-78
2023/08/01 10:56:55;;;;;;;;;;;;;;;35.58;30.93;98882.03;5051032;28;19913;-78
2023/08/01 10:59:21;;;;;;;;;;;;;;;35.44;29.78;98878.97;5046880;28;21417;-77
2023/08/01 11:01:50;;;;;;;;;;;;;;;35.73;28.83;98866.66;5047764;28;19965;-78
2023/08/01 11:04:19;;;;;;;;;;;;;;;36.02;29.71;98871.59;5047643;28;20020;-77
2023/08/01 11:06:49;;;;;;;;;;;;;;;36.29;27.94;98864.25;5049842;28;19935;-77
2023/08/01 11:09:15;;;;;;;;;;;;;;;36.53;28.46;98858.44;5052414;28;19919;-78
2023/08/01 11:11:41;;;;;;;;;;;;;;;36.74;27.15;98868.19;5044788;28;19920;-78
2023/08/01 11:14:06;;;;;;;;;;;;;;;36.65;28.22;98859.41;5049497;28;19913;-78
2023/08/01 11:16:31;;;;;;;;;;;;;;;36.47;29.13;98864.59;5049805;28;19917;-78
2023/08/01 11:18:56;;;;;;;;;;;;;;;36.05;30.57;98854.38;5050099;28;20442;-78
2023/08/01 11:21:26;;;;;;;;;;;;;;;35.75;30.24;98845.91;5043778;28;19967;-78
2023/08/01 11:23:51;;;;;;;;;;;;;;;35.38;30.60;98842.78;5023423;28;19920;-77
2023/08/01 11:26:16;;;;;;;;;;;;;;;35.43;29.57;98842.50;5044164;28;19916;-79
2023/08/01 11:28:42;;;;;;;;;;;;;;;35.89;27.93;98840.72;5051550;28;19944;-78
2023/08/01 11:31:11;;;;;;;;;;;;;;;36.31;28.64;98834.44;5050687;28;20304;-78
2023/08/01 11:33:36;;;;;;;;;;;;;;;36.65;28.99;98837.41;5051199;28;19919;-76
2023/08/01 11:36:03;;;;;;;;;;;;;;;37.05;28.50;98831.34;5050478;28;20040;-78
2023/08/01 11:38:33;;;;;;;;;;;;;;;37.06;27.00;98828.22;5051551;28;19913;-78
2023/08/01 11:40:58;;;;;;;;;;;;;;;37.11;28.41;98825.16;5046860;28;19940;-77
2023/08/01 11:43:24;;;;;;;;;;;;;;;37.31;28.71;98820.38;5051121;28;20030;-75
2023/08/01 11:45:50;;;;;;;;;;;;;;;37.46;27.82;98815.81;5030195;28;19913;-78
2023/08/01 11:48:15;;;;;;;;;;;;;;;37.62;28.28;98824.69;5050711;28;20358;-77
2023/08/01 11:50:41;;;;;;;;;;;;;;;37.13;27.60;98816.53;5050600;28;20003;-78
2023/08/01 11:53:17;;;;;;;;;;;;;;;36.54;28.02;98812.47;5050818;28;19962;-78
2023/08/01 11:55:42;;;;;;;;;;;;;;;35.95;28.00;98806.31;5051035;28;19913;-77
2023/08/01 11:58:07;;;;;;;;;;;;;;;35.72;29.27;98813.69;5050728;28;20386;-77
2023/08/01 12:00:32;;;;;;;;;;;;;;;36.02;28.84;98802.09;5050300;28;19925;-78
2023/08/01 12:03:05;;;;;;;;;;;;;;;36.35;28.79;98798.78;5049820;28;19965;-78
2023/08/01 12:05:31;;;;;;;;;;;;;;;36.72;28.46;98796.25;5031605;28;20006;-78
2023/08/01 12:07:56;;;;;;;;;;;;;;;36.91;28.23;98793.41;5037591;28;20424;-78
2023/08/01 12:10:21;;;;;;;;;;;;;;;37.11;27.77;98785.81;5051275;28;20352;-78
2023/08/01 12:12:46;;;;;;;;;;;;;;;37.28;26.01;98788.06;5050124;28;19912;-77
2023/08/01 12:15:13;;;;;;;;;;;;;;;37.51;28.01;98796.22;5051211;28;20321;-77
2023/08/01 12:17:38;;;;;;;;;;;;;;;37.64;27.02;98777.47;5039949;28;19963;-78
2023/08/01 12:20:03;;;;;;;;;;;;;;;37.79;27.31;98791.03;5050981;28;19908;-77
2023/08/01 12:22:29;;;;;;;;;;;;;;;38.03;26.92;98780.69;5051121;28;20385;-78
2023/08/01 12:24:54;;;;;;;;;;;;;;;38.05;26.21;98779.13;5036376;28;19913;-77
2023/08/01 12:27:19;;;;;;;;;;;;;;;38.17;26.63;98771.78;5041378;28;19919;-78
2023/08/01 12:29:44;;;;;;;;;;;;;;;38.37;25.24;98767.59;5049001;28;20008;-78
2023/08/01 12:32:10;;;;;;;;;;;;;;;38.49;24.90;98770.06;5048847;28;19913;-77
2023/08/01 12:34:35;;;;;;;;;;;;;;;37.75;25.07;98761.88;5053216;28;19923;-77
2023/08/01 12:37:00;;;;;;;;;;;;;;;37.30;26.37;98776.69;5054164;28;20390;-77
2023/08/01 12:39:25;;;;;;;;;;;;;;;36.97;27.20;98766.38;5053446;28;19944;-78